sensor_id;sensor_type;location;lat;lon;timestamp;P1;durP1;ratioP1;P2;durP2;ratioP2
1380;SDS011;684;48.342;10.096;2023-09-19T00:00:19;9.40;;;2.93;;
1380;SDS011;684;48.342;10.096;2023-09-19T00:02:53;4.80;;;2.13;;
1380;SDS011;684;48.342;10.096;2023-09-19T00:05:20;6.80;;;3.33;;
1380;SDS011;684;48.342;10.096;2023-09-19T00:07:49;5.90;;;2.50;;
1380;SDS011;684;48.342;10.096;2023-09-19T00:10:18;6.00;;;3.17;;
1380;SDS011;684;48.342;10.096;2023-09-19T00:12:46;6.10;;;3.03;;
1380;SDS011;684;48.342;10.096;2023-09-19T00:15:13;9.70;;;2.87;;
1380;SDS011;684;48.342;10.096;2023-09-19T00:17:42;5.60;;;2.70;;
1380;SDS011;684;48.342;10.096;2023-09-19T00:20:11;5.97;;;2.90;;
1380;SDS011;684;48.342;10.096;2023-09-19T00:22:39;6.00;;;2.57;;
1380;SDS011;684;48.342;10.096;2023-09-19T00:25:07;5.20;;;2.67;;
1380;SDS011;684;48.342;10.096;2023-09-19T00:27:34;7.17;;;2.90;;
1380;SDS011;684;48.342;10.096;2023-09-19T00:30:05;6.83;;;3.20;;
1380;SDS011;684;48.342;10.096;2023-09-19T00:32:39;6.33;;;2.40;;
1380;SDS011;684;48.342;10.096;2023-09-19T00:35:06;6.03;;;2.70;;
1380;SDS011;684;48.342;10.096;2023-09-19T00:37:35;8.13;;;2.57;;
1380;SDS011;684;48.342;10.096;2023-09-19T00:40:02;5.53;;;2.87;;
1380;SDS011;684;48.342;10.096;2023-09-19T00:42:30;5.57;;;2.90;;
1380;SDS011;684;48.342;10.096;2023-09-19T00:44:58;6.30;;;2.73;;
1380;SDS011;684;48.342;10.096;2023-09-19T00:47:28;6.33;;;2.97;;
1380;SDS011;684;48.342;10.096;2023-09-19T00:49:55;6.60;;;2.90;;
1380;SDS011;684;48.342;10.096;2023-09-19T00:52:23;8.27;;;3.03;;
1380;SDS011;684;48.342;10.096;2023-09-19T00:54:51;7.13;;;2.80;;
1380;SDS011;684;48.342;10.096;2023-09-19T00:57:18;5.20;;;2.57;;
1380;SDS011;684;48.342;10.096;2023-09-19T00:59:47;5.40;;;2.90;;
1380;SDS011;684;48.342;10.096;2023-09-19T01:02:16;7.33;;;2.90;;
1380;SDS011;684;48.342;10.096;2023-09-19T01:04:43;6.50;;;3.20;;
1380;SDS011;684;48.342;10.096;2023-09-19T01:07:11;6.53;;;3.20;;
1380;SDS011;684;48.342;10.096;2023-09-19T01:09:39;9.03;;;3.50;;
1380;SDS011;684;48.342;10.096;2023-09-19T01:12:08;6.10;;;2.80;;
1380;SDS011;684;48.342;10.096;2023-09-19T01:14:38;6.43;;;2.90;;
1380;SDS011;684;48.342;10.096;2023-09-19T01:17:14;6.50;;;2.73;;
1380;SDS011;684;48.342;10.096;2023-09-19T01:22:29;9.40;;;3.50;;
1380;SDS011;684;48.342;10.096;2023-09-19T01:25:19;5.60;;;2.67;;
1380;SDS011;684;48.342;10.096;2023-09-19T01:28:08;5.03;;;2.70;;
1380;SDS011;684;48.342;10.096;2023-09-19T01:30:44;6.67;;;2.80;;
1380;SDS011;684;48.342;10.096;2023-09-19T01:33:14;5.67;;;2.77;;
1380;SDS011;684;48.342;10.096;2023-09-19T01:35:42;4.53;;;2.37;;
1380;SDS011;684;48.342;10.096;2023-09-19T01:38:08;5.10;;;2.50;;
1380;SDS011;684;48.342;10.096;2023-09-19T01:40:37;7.93;;;3.00;;
1380;SDS011;684;48.342;10.096;2023-09-19T01:43:12;6.03;;;2.27;;
1380;SDS011;684;48.342;10.096;2023-09-19T01:45:46;5.60;;;2.53;;
1380;SDS011;684;48.342;10.096;2023-09-19T01:48:23;5.67;;;2.30;;
1380;SDS011;684;48.342;10.096;2023-09-19T01:50:55;7.00;;;2.50;;
1380;SDS011;684;48.342;10.096;2023-09-19T01:53:27;5.20;;;2.50;;
1380;SDS011;684;48.342;10.096;2023-09-19T01:55:56;4.63;;;2.37;;
1380;SDS011;684;48.342;10.096;2023-09-19T01:58:26;4.73;;;2.30;;
1380;SDS011;684;48.342;10.096;2023-09-19T02:00:59;5.90;;;2.30;;
1380;SDS011;684;48.342;10.096;2023-09-19T02:03:27;6.27;;;2.70;;
1380;SDS011;684;48.342;10.096;2023-09-19T02:05:55;8.70;;;2.30;;
1380;SDS011;684;48.342;10.096;2023-09-19T02:08:22;5.53;;;2.33;;
1380;SDS011;684;48.342;10.096;2023-09-19T02:10:50;4.87;;;2.07;;
1380;SDS011;684;48.342;10.096;2023-09-19T02:13:18;8.87;;;3.13;;
1380;SDS011;684;48.342;10.096;2023-09-19T02:15:46;4.73;;;2.20;;
1380;SDS011;684;48.342;10.096;2023-09-19T02:18:14;9.20;;;2.57;;
1380;SDS011;684;48.342;10.096;2023-09-19T02:20:41;6.60;;;2.93;;
1380;SDS011;684;48.342;10.096;2023-09-19T02:23:08;5.77;;;2.10;;
1380;SDS011;684;48.342;10.096;2023-09-19T02:25:36;7.10;;;2.70;;
1380;SDS011;684;48.342;10.096;2023-09-19T02:28:03;9.50;;;2.40;;
1380;SDS011;684;48.342;10.096;2023-09-19T02:30:30;5.83;;;2.10;;
1380;SDS011;684;48.342;10.096;2023-09-19T02:32:57;7.87;;;2.13;;
1380;SDS011;684;48.342;10.096;2023-09-19T02:35:27;5.23;;;2.20;;
1380;SDS011;684;48.342;10.096;2023-09-19T02:37:58;4.97;;;3.00;;
1380;SDS011;684;48.342;10.096;2023-09-19T02:40:24;6.60;;;2.50;;
1380;SDS011;684;48.342;10.096;2023-09-19T02:42:53;6.27;;;2.50;;
1380;SDS011;684;48.342;10.096;2023-09-19T02:45:21;4.50;;;2.00;;
1380;SDS011;684;48.342;10.096;2023-09-19T02:47:48;8.50;;;2.57;;
1380;SDS011;684;48.342;10.096;2023-09-19T02:50:15;9.77;;;2.53;;
1380;SDS011;684;48.342;10.096;2023-09-19T02:52:44;6.30;;;2.20;;
1380;SDS011;684;48.342;10.096;2023-09-19T02:55:12;6.50;;;3.10;;
1380;SDS011;684;48.342;10.096;2023-09-19T02:57:45;5.80;;;2.57;;
1380;SDS011;684;48.342;10.096;2023-09-19T03:00:12;4.90;;;2.10;;
1380;SDS011;684;48.342;10.096;2023-09-19T03:02:40;7.10;;;2.83;;
1380;SDS011;684;48.342;10.096;2023-09-19T03:05:08;7.03;;;2.40;;
1380;SDS011;684;48.342;10.096;2023-09-19T03:07:36;5.87;;;2.20;;
1380;SDS011;684;48.342;10.096;2023-09-19T03:10:05;6.23;;;2.60;;
1380;SDS011;684;48.342;10.096;2023-09-19T03:12:33;5.80;;;2.47;;
1380;SDS011;684;48.342;10.096;2023-09-19T03:15:00;7.63;;;2.70;;
1380;SDS011;684;48.342;10.096;2023-09-19T03:17:27;7.70;;;2.50;;
1380;SDS011;684;48.342;10.096;2023-09-19T03:19:53;7.83;;;2.60;;
1380;SDS011;684;48.342;10.096;2023-09-19T03:22:20;5.63;;;2.63;;
1380;SDS011;684;48.342;10.096;2023-09-19T03:24:47;8.67;;;2.60;;
1380;SDS011;684;48.342;10.096;2023-09-19T03:27:15;5.30;;;2.40;;
1380;SDS011;684;48.342;10.096;2023-09-19T03:29:42;8.30;;;2.70;;
1380;SDS011;684;48.342;10.096;2023-09-19T03:32:08;11.03;;;2.90;;
1380;SDS011;684;48.342;10.096;2023-09-19T03:34:36;4.90;;;2.10;;
1380;SDS011;684;48.342;10.096;2023-09-19T03:37:03;6.47;;;2.50;;
1380;SDS011;684;48.342;10.096;2023-09-19T03:39:30;5.50;;;2.60;;
1380;SDS011;684;48.342;10.096;2023-09-19T03:41:57;4.63;;;2.17;;
1380;SDS011;684;48.342;10.096;2023-09-19T03:44:25;6.23;;;2.30;;
1380;SDS011;684;48.342;10.096;2023-09-19T03:46:51;5.23;;;2.00;;
1380;SDS011;684;48.342;10.096;2023-09-19T03:49:20;4.83;;;2.20;;
1380;SDS011;684;48.342;10.096;2023-09-19T03:51:47;6.70;;;2.53;;
1380;SDS011;684;48.342;10.096;2023-09-19T03:54:13;7.10;;;2.17;;
1380;SDS011;684;48.342;10.096;2023-09-19T03:56:42;5.13;;;1.93;;
1380;SDS011;684;48.342;10.096;2023-09-19T03:59:08;5.10;;;2.50;;
1380;SDS011;684;48.342;10.096;2023-09-19T04:01:37;5.77;;;2.60;;
1380;SDS011;684;48.342;10.096;2023-09-19T04:04:04;5.27;;;1.90;;
1380;SDS011;684;48.342;10.096;2023-09-19T04:06:34;6.93;;;2.90;;
1380;SDS011;684;48.342;10.096;2023-09-19T04:09:01;6.83;;;2.27;;
1380;SDS011;684;48.342;10.096;2023-09-19T04:11:28;5.40;;;2.67;;
1380;SDS011;684;48.342;10.096;2023-09-19T04:13:55;5.10;;;2.30;;
1380;SDS011;684;48.342;10.096;2023-09-19T04:16:22;5.63;;;2.10;;
1380;SDS011;684;48.342;10.096;2023-09-19T04:18:50;5.80;;;2.57;;
1380;SDS011;684;48.342;10.096;2023-09-19T04:21:16;5.33;;;2.20;;
1380;SDS011;684;48.342;10.096;2023-09-19T04:23:44;5.90;;;2.27;;
1380;SDS011;684;48.342;10.096;2023-09-19T04:26:10;4.77;;;2.00;;
1380;SDS011;684;48.342;10.096;2023-09-19T04:28:38;5.20;;;2.33;;
1380;SDS011;684;48.342;10.096;2023-09-19T04:31:05;5.10;;;2.30;;
1380;SDS011;684;48.342;10.096;2023-09-19T04:33:33;5.93;;;2.60;;
1380;SDS011;684;48.342;10.096;2023-09-19T04:36:02;5.07;;;2.60;;
1380;SDS011;684;48.342;10.096;2023-09-19T04:38:30;5.70;;;2.50;;
1380;SDS011;684;48.342;10.096;2023-09-19T04:40:57;5.07;;;2.20;;
1380;SDS011;684;48.342;10.096;2023-09-19T04:43:24;8.93;;;2.03;;
1380;SDS011;684;48.342;10.096;2023-09-19T04:45:51;5.67;;;2.00;;
1380;SDS011;684;48.342;10.096;2023-09-19T04:48:20;5.50;;;2.43;;
1380;SDS011;684;48.342;10.096;2023-09-19T04:50:49;5.80;;;2.50;;
1380;SDS011;684;48.342;10.096;2023-09-19T04:53:17;8.83;;;2.60;;
1380;SDS011;684;48.342;10.096;2023-09-19T04:55:45;5.03;;;2.30;;
1380;SDS011;684;48.342;10.096;2023-09-19T04:58:15;5.07;;;1.87;;
1380;SDS011;684;48.342;10.096;2023-09-19T05:00:42;7.50;;;2.60;;
1380;SDS011;684;48.342;10.096;2023-09-19T05:03:09;7.20;;;2.50;;
1380;SDS011;684;48.342;10.096;2023-09-19T05:05:36;4.77;;;2.20;;
1380;SDS011;684;48.342;10.096;2023-09-19T05:08:03;4.70;;;1.90;;
1380;SDS011;684;48.342;10.096;2023-09-19T05:10:32;4.80;;;2.30;;
1380;SDS011;684;48.342;10.096;2023-09-19T05:13:00;6.50;;;2.07;;
1380;SDS011;684;48.342;10.096;2023-09-19T05:15:27;5.67;;;1.90;;
1380;SDS011;684;48.342;10.096;2023-09-19T05:17:54;4.50;;;2.10;;
1380;SDS011;684;48.342;10.096;2023-09-19T05:20:20;7.27;;;2.10;;
1380;SDS011;684;48.342;10.096;2023-09-19T05:22:57;6.27;;;1.70;;
1380;SDS011;684;48.342;10.096;2023-09-19T05:25:27;5.17;;;1.90;;
1380;SDS011;684;48.342;10.096;2023-09-19T05:27:57;4.47;;;1.70;;
1380;SDS011;684;48.342;10.096;2023-09-19T05:30:28;7.47;;;2.80;;
1380;SDS011;684;48.342;10.096;2023-09-19T05:32:55;4.40;;;1.60;;
1380;SDS011;684;48.342;10.096;2023-09-19T05:35:22;5.03;;;2.37;;
1380;SDS011;684;48.342;10.096;2023-09-19T05:37:49;4.83;;;1.73;;
1380;SDS011;684;48.342;10.096;2023-09-19T05:40:17;5.07;;;2.17;;
1380;SDS011;684;48.342;10.096;2023-09-19T05:42:43;5.37;;;1.80;;
1380;SDS011;684;48.342;10.096;2023-09-19T05:45:12;6.13;;;2.20;;
1380;SDS011;684;48.342;10.096;2023-09-19T05:47:39;5.03;;;1.63;;
1380;SDS011;684;48.342;10.096;2023-09-19T05:50:09;4.10;;;1.47;;
1380;SDS011;684;48.342;10.096;2023-09-19T05:52:36;7.10;;;1.73;;
1380;SDS011;684;48.342;10.096;2023-09-19T05:55:03;6.57;;;1.77;;
1380;SDS011;684;48.342;10.096;2023-09-19T05:57:32;4.70;;;1.40;;
1380;SDS011;684;48.342;10.096;2023-09-19T05:59:59;3.60;;;1.20;;
1380;SDS011;684;48.342;10.096;2023-09-19T06:02:27;4.40;;;1.67;;
1380;SDS011;684;48.342;10.096;2023-09-19T06:04:55;4.33;;;1.37;;
1380;SDS011;684;48.342;10.096;2023-09-19T06:07:22;3.90;;;1.37;;
1380;SDS011;684;48.342;10.096;2023-09-19T06:09:51;3.93;;;1.53;;
1380;SDS011;684;48.342;10.096;2023-09-19T06:12:18;4.20;;;1.70;;
1380;SDS011;684;48.342;10.096;2023-09-19T06:14:45;5.87;;;1.47;;
1380;SDS011;684;48.342;10.096;2023-09-19T06:17:12;5.27;;;1.90;;
1380;SDS011;684;48.342;10.096;2023-09-19T06:19:40;4.43;;;1.60;;
1380;SDS011;684;48.342;10.096;2023-09-19T06:22:14;5.87;;;1.80;;
1380;SDS011;684;48.342;10.096;2023-09-19T06:24:41;4.63;;;1.87;;
1380;SDS011;684;48.342;10.096;2023-09-19T06:27:08;5.30;;;1.43;;
1380;SDS011;684;48.342;10.096;2023-09-19T06:29:35;3.97;;;1.27;;
1380;SDS011;684;48.342;10.096;2023-09-19T06:32:02;5.10;;;1.50;;
1380;SDS011;684;48.342;10.096;2023-09-19T06:34:32;5.00;;;1.20;;
1380;SDS011;684;48.342;10.096;2023-09-19T06:37:00;4.60;;;1.53;;
1380;SDS011;684;48.342;10.096;2023-09-19T06:39:28;4.83;;;1.63;;
1380;SDS011;684;48.342;10.096;2023-09-19T06:41:56;3.50;;;1.10;;
1380;SDS011;684;48.342;10.096;2023-09-19T06:44:23;5.43;;;1.10;;
1380;SDS011;684;48.342;10.096;2023-09-19T06:46:50;3.87;;;1.40;;
1380;SDS011;684;48.342;10.096;2023-09-19T06:49:17;5.67;;;1.47;;
1380;SDS011;684;48.342;10.096;2023-09-19T06:51:44;5.13;;;1.57;;
1380;SDS011;684;48.342;10.096;2023-09-19T06:54:12;4.33;;;1.33;;
1380;SDS011;684;48.342;10.096;2023-09-19T06:56:39;4.50;;;1.50;;
1380;SDS011;684;48.342;10.096;2023-09-19T06:59:06;4.90;;;1.50;;
1380;SDS011;684;48.342;10.096;2023-09-19T07:01:33;4.10;;;1.53;;
1380;SDS011;684;48.342;10.096;2023-09-19T07:04:02;3.40;;;1.00;;
1380;SDS011;684;48.342;10.096;2023-09-19T07:06:30;4.60;;;1.40;;
1380;SDS011;684;48.342;10.096;2023-09-19T07:08:57;6.90;;;2.17;;
1380;SDS011;684;48.342;10.096;2023-09-19T07:11:25;4.17;;;1.50;;
1380;SDS011;684;48.342;10.096;2023-09-19T07:13:52;4.30;;;1.40;;
1380;SDS011;684;48.342;10.096;2023-09-19T07:16:18;5.70;;;1.70;;
1380;SDS011;684;48.342;10.096;2023-09-19T07:18:55;3.47;;;1.40;;
1380;SDS011;684;48.342;10.096;2023-09-19T07:21:22;3.70;;;1.50;;
1380;SDS011;684;48.342;10.096;2023-09-19T07:23:49;6.20;;;1.43;;
1380;SDS011;684;48.342;10.096;2023-09-19T07:26:16;3.60;;;1.43;;
1380;SDS011;684;48.342;10.096;2023-09-19T07:28:44;3.70;;;1.00;;
1380;SDS011;684;48.342;10.096;2023-09-19T07:31:10;5.07;;;1.60;;
1380;SDS011;684;48.342;10.096;2023-09-19T07:33:39;4.60;;;1.63;;
1380;SDS011;684;48.342;10.096;2023-09-19T07:36:09;4.37;;;1.70;;
1380;SDS011;684;48.342;10.096;2023-09-19T07:38:38;5.53;;;1.20;;
1380;SDS011;684;48.342;10.096;2023-09-19T07:41:05;3.30;;;1.20;;
1380;SDS011;684;48.342;10.096;2023-09-19T07:43:33;4.93;;;1.30;;
1380;SDS011;684;48.342;10.096;2023-09-19T07:46:03;3.80;;;1.10;;
1380;SDS011;684;48.342;10.096;2023-09-19T07:48:32;3.93;;;1.27;;
1380;SDS011;684;48.342;10.096;2023-09-19T07:51:01;3.67;;;1.40;;
1380;SDS011;684;48.342;10.096;2023-09-19T07:53:28;3.83;;;1.17;;
1380;SDS011;684;48.342;10.096;2023-09-19T07:56:01;3.77;;;1.40;;
1380;SDS011;684;48.342;10.096;2023-09-19T07:58:31;3.50;;;1.13;;
1380;SDS011;684;48.342;10.096;2023-09-19T08:01:02;3.80;;;1.00;;
1380;SDS011;684;48.342;10.096;2023-09-19T08:03:31;4.73;;;1.30;;
1380;SDS011;684;48.342;10.096;2023-09-19T08:05:58;3.13;;;0.93;;
1380;SDS011;684;48.342;10.096;2023-09-19T08:08:25;3.00;;;1.00;;
1380;SDS011;684;48.342;10.096;2023-09-19T08:10:52;5.10;;;1.30;;
1380;SDS011;684;48.342;10.096;2023-09-19T08:13:21;4.40;;;0.93;;
1380;SDS011;684;48.342;10.096;2023-09-19T08:15:48;3.93;;;1.00;;
1380;SDS011;684;48.342;10.096;2023-09-19T08:18:17;4.33;;;1.30;;
1380;SDS011;684;48.342;10.096;2023-09-19T08:20:48;4.30;;;1.20;;
1380;SDS011;684;48.342;10.096;2023-09-19T08:23:15;4.20;;;1.37;;
1380;SDS011;684;48.342;10.096;2023-09-19T08:25:43;3.80;;;1.20;;
1380;SDS011;684;48.342;10.096;2023-09-19T08:28:10;4.30;;;1.30;;
1380;SDS011;684;48.342;10.096;2023-09-19T08:30:42;4.10;;;1.40;;
1380;SDS011;684;48.342;10.096;2023-09-19T08:33:09;5.23;;;1.47;;
1380;SDS011;684;48.342;10.096;2023-09-19T08:35:37;3.20;;;1.07;;
1380;SDS011;684;48.342;10.096;2023-09-19T08:38:04;4.40;;;1.80;;
1380;SDS011;684;48.342;10.096;2023-09-19T08:40:31;5.67;;;1.17;;
1380;SDS011;684;48.342;10.096;2023-09-19T08:42:59;3.47;;;1.13;;
1380;SDS011;684;48.342;10.096;2023-09-19T08:45:26;4.67;;;1.33;;
1380;SDS011;684;48.342;10.096;2023-09-19T08:47:56;3.13;;;1.10;;
1380;SDS011;684;48.342;10.096;2023-09-19T08:50:30;3.93;;;1.10;;
1380;SDS011;684;48.342;10.096;2023-09-19T08:53:00;2.97;;;0.80;;
1380;SDS011;684;48.342;10.096;2023-09-19T08:55:27;4.30;;;1.00;;
1380;SDS011;684;48.342;10.096;2023-09-19T08:57:57;8.17;;;1.67;;
1380;SDS011;684;48.342;10.096;2023-09-19T09:00:27;4.47;;;1.30;;
1380;SDS011;684;48.342;10.096;2023-09-19T09:02:55;4.90;;;1.00;;
1380;SDS011;684;48.342;10.096;2023-09-19T09:05:23;7.27;;;1.47;;
1380;SDS011;684;48.342;10.096;2023-09-19T09:07:51;3.80;;;1.20;;
1380;SDS011;684;48.342;10.096;2023-09-19T09:10:21;4.57;;;1.00;;
1380;SDS011;684;48.342;10.096;2023-09-19T09:12:48;4.10;;;0.90;;
1380;SDS011;684;48.342;10.096;2023-09-19T09:15:17;3.83;;;1.23;;
1380;SDS011;684;48.342;10.096;2023-09-19T09:17:48;4.27;;;1.10;;
1380;SDS011;684;48.342;10.096;2023-09-19T09:20:15;4.30;;;1.40;;
1380;SDS011;684;48.342;10.096;2023-09-19T09:22:50;3.33;;;1.30;;
1380;SDS011;684;48.342;10.096;2023-09-19T09:25:18;3.53;;;1.20;;
1380;SDS011;684;48.342;10.096;2023-09-19T09:27:53;4.03;;;1.10;;
1380;SDS011;684;48.342;10.096;2023-09-19T09:30:32;3.70;;;1.17;;
1380;SDS011;684;48.342;10.096;2023-09-19T09:33:07;4.40;;;1.10;;
1380;SDS011;684;48.342;10.096;2023-09-19T09:35:35;3.30;;;1.00;;
1380;SDS011;684;48.342;10.096;2023-09-19T09:38:04;4.80;;;1.30;;
1380;SDS011;684;48.342;10.096;2023-09-19T09:40:39;3.07;;;0.90;;
1380;SDS011;684;48.342;10.096;2023-09-19T09:43:25;3.60;;;1.30;;
1380;SDS011;684;48.342;10.096;2023-09-19T09:46:07;4.00;;;1.20;;
1380;SDS011;684;48.342;10.096;2023-09-19T09:48:59;3.50;;;1.10;;
1380;SDS011;684;48.342;10.096;2023-09-19T09:51:44;3.80;;;1.20;;
1380;SDS011;684;48.342;10.096;2023-09-19T09:54:14;3.60;;;1.27;;
1380;SDS011;684;48.342;10.096;2023-09-19T09:56:54;5.60;;;1.17;;
1380;SDS011;684;48.342;10.096;2023-09-19T09:59:36;3.57;;;1.27;;
1380;SDS011;684;48.342;10.096;2023-09-19T10:02:12;3.87;;;1.10;;
1380;SDS011;684;48.342;10.096;2023-09-19T10:04:41;4.70;;;1.30;;
1380;SDS011;684;48.342;10.096;2023-09-19T10:07:23;4.13;;;1.20;;
1380;SDS011;684;48.342;10.096;2023-09-19T10:09:57;3.47;;;1.03;;
1380;SDS011;684;48.342;10.096;2023-09-19T10:12:38;7.13;;;1.80;;
1380;SDS011;684;48.342;10.096;2023-09-19T10:15:09;3.80;;;1.17;;
1380;SDS011;684;48.342;10.096;2023-09-19T10:17:42;4.70;;;1.10;;
1380;SDS011;684;48.342;10.096;2023-09-19T10:20:14;3.30;;;0.90;;
1380;SDS011;684;48.342;10.096;2023-09-19T10:23:00;4.60;;;0.90;;
1380;SDS011;684;48.342;10.096;2023-09-19T10:25:34;4.40;;;0.90;;
1380;SDS011;684;48.342;10.096;2023-09-19T10:28:03;3.37;;;0.83;;
1380;SDS011;684;48.342;10.096;2023-09-19T10:30:37;3.30;;;0.77;;
1380;SDS011;684;48.342;10.096;2023-09-19T10:33:07;3.37;;;1.20;;
1380;SDS011;684;48.342;10.096;2023-09-19T10:35:34;6.20;;;1.00;;
1380;SDS011;684;48.342;10.096;2023-09-19T10:38:06;4.23;;;0.80;;
1380;SDS011;684;48.342;10.096;2023-09-19T10:40:34;3.50;;;1.20;;
1380;SDS011;684;48.342;10.096;2023-09-19T10:43:02;4.07;;;0.93;;
1380;SDS011;684;48.342;10.096;2023-09-19T10:45:31;4.50;;;0.83;;
1380;SDS011;684;48.342;10.096;2023-09-19T10:48:00;3.23;;;0.80;;
1380;SDS011;684;48.342;10.096;2023-09-19T10:50:30;3.03;;;0.90;;
1380;SDS011;684;48.342;10.096;2023-09-19T10:53:02;3.87;;;1.40;;
1380;SDS011;684;48.342;10.096;2023-09-19T10:55:33;3.40;;;0.90;;
1380;SDS011;684;48.342;10.096;2023-09-19T10:58:01;3.67;;;0.90;;
1380;SDS011;684;48.342;10.096;2023-09-19T11:00:49;4.97;;;1.40;;
1380;SDS011;684;48.342;10.096;2023-09-19T11:03:19;4.57;;;1.20;;
1380;SDS011;684;48.342;10.096;2023-09-19T11:06:04;6.07;;;1.27;;
1380;SDS011;684;48.342;10.096;2023-09-19T11:08:54;4.60;;;1.10;;
1380;SDS011;684;48.342;10.096;2023-09-19T11:11:47;3.30;;;1.13;;
1380;SDS011;684;48.342;10.096;2023-09-19T11:14:28;4.17;;;1.50;;
1380;SDS011;684;48.342;10.096;2023-09-19T11:20:21;3.70;;;1.10;;
1380;SDS011;684;48.342;10.096;2023-09-19T11:25:57;3.43;;;1.03;;
1380;SDS011;684;48.342;10.096;2023-09-19T11:28:30;3.20;;;1.10;;
1380;SDS011;684;48.342;10.096;2023-09-19T11:34:43;5.70;;;1.70;;
1380;SDS011;684;48.342;10.096;2023-09-19T11:40:33;3.50;;;1.00;;
1380;SDS011;684;48.342;10.096;2023-09-19T11:43:00;4.07;;;0.90;;
1380;SDS011;684;48.342;10.096;2023-09-19T11:46:05;3.40;;;0.90;;
1380;SDS011;684;48.342;10.096;2023-09-19T11:48:32;5.07;;;1.23;;
1380;SDS011;684;48.342;10.096;2023-09-19T11:51:13;4.93;;;1.33;;
1380;SDS011;684;48.342;10.096;2023-09-19T11:53:44;3.93;;;1.23;;
1380;SDS011;684;48.342;10.096;2023-09-19T11:56:14;4.43;;;1.00;;
1380;SDS011;684;48.342;10.096;2023-09-19T11:58:42;4.30;;;1.17;;
1380;SDS011;684;48.342;10.096;2023-09-19T12:01:11;3.93;;;0.83;;
1380;SDS011;684;48.342;10.096;2023-09-19T12:03:45;3.90;;;1.33;;
1380;SDS011;684;48.342;10.096;2023-09-19T12:06:14;3.40;;;1.10;;
1380;SDS011;684;48.342;10.096;2023-09-19T12:08:42;3.70;;;1.10;;
1380;SDS011;684;48.342;10.096;2023-09-19T12:11:12;3.60;;;1.10;;
1380;SDS011;684;48.342;10.096;2023-09-19T12:13:42;3.40;;;1.20;;
1380;SDS011;684;48.342;10.096;2023-09-19T12:16:14;3.67;;;1.20;;
1380;SDS011;684;48.342;10.096;2023-09-19T12:18:41;3.37;;;1.20;;
1380;SDS011;684;48.342;10.096;2023-09-19T12:21:21;4.33;;;1.10;;
1380;SDS011;684;48.342;10.096;2023-09-19T12:23:56;3.70;;;1.47;;
1380;SDS011;684;48.342;10.096;2023-09-19T12:26:31;3.40;;;1.17;;
1380;SDS011;684;48.342;10.096;2023-09-19T12:29:07;3.30;;;1.03;;
1380;SDS011;684;48.342;10.096;2023-09-19T12:31:46;3.87;;;1.10;;
1380;SDS011;684;48.342;10.096;2023-09-19T12:34:15;4.03;;;1.20;;
1380;SDS011;684;48.342;10.096;2023-09-19T12:36:44;4.07;;;1.20;;
1380;SDS011;684;48.342;10.096;2023-09-19T12:39:21;3.90;;;1.60;;
1380;SDS011;684;48.342;10.096;2023-09-19T12:41:51;3.30;;;1.00;;
1380;SDS011;684;48.342;10.096;2023-09-19T12:44:18;3.87;;;1.00;;
1380;SDS011;684;48.342;10.096;2023-09-19T12:46:45;3.27;;;0.90;;
1380;SDS011;684;48.342;10.096;2023-09-19T12:49:15;3.93;;;1.20;;
1380;SDS011;684;48.342;10.096;2023-09-19T12:51:43;4.23;;;1.17;;
1380;SDS011;684;48.342;10.096;2023-09-19T12:54:11;4.93;;;1.50;;
1380;SDS011;684;48.342;10.096;2023-09-19T12:56:40;3.90;;;1.00;;
1380;SDS011;684;48.342;10.096;2023-09-19T12:59:11;3.80;;;1.10;;
1380;SDS011;684;48.342;10.096;2023-09-19T13:01:39;5.50;;;2.00;;
1380;SDS011;684;48.342;10.096;2023-09-19T13:04:14;4.27;;;1.37;;
1380;SDS011;684;48.342;10.096;2023-09-19T13:06:44;3.37;;;1.13;;
1380;SDS011;684;48.342;10.096;2023-09-19T13:09:13;3.90;;;1.20;;
1380;SDS011;684;48.342;10.096;2023-09-19T13:11:41;4.20;;;1.30;;
1380;SDS011;684;48.342;10.096;2023-09-19T13:14:14;3.53;;;1.00;;
1380;SDS011;684;48.342;10.096;2023-09-19T13:16:55;10.53;;;2.40;;
1380;SDS011;684;48.342;10.096;2023-09-19T13:19:38;4.40;;;1.20;;
1380;SDS011;684;48.342;10.096;2023-09-19T13:25:14;4.10;;;1.50;;
1380;SDS011;684;48.342;10.096;2023-09-19T13:27:43;3.80;;;1.03;;
1380;SDS011;684;48.342;10.096;2023-09-19T13:30:12;4.00;;;1.17;;
1380;SDS011;684;48.342;10.096;2023-09-19T13:32:39;3.73;;;1.23;;
1380;SDS011;684;48.342;10.096;2023-09-19T13:35:08;3.60;;;1.10;;
1380;SDS011;684;48.342;10.096;2023-09-19T13:37:34;6.67;;;1.20;;
1380;SDS011;684;48.342;10.096;2023-09-19T13:40:06;4.23;;;1.10;;
1380;SDS011;684;48.342;10.096;2023-09-19T13:42:34;4.77;;;1.37;;
1380;SDS011;684;48.342;10.096;2023-09-19T13:45:01;4.53;;;1.07;;
1380;SDS011;684;48.342;10.096;2023-09-19T13:47:31;8.37;;;1.53;;
1380;SDS011;684;48.342;10.096;2023-09-19T13:49:58;3.73;;;1.27;;
1380;SDS011;684;48.342;10.096;2023-09-19T13:52:25;3.10;;;0.90;;
1380;SDS011;684;48.342;10.096;2023-09-19T13:54:54;4.03;;;1.20;;
1380;SDS011;684;48.342;10.096;2023-09-19T13:57:21;4.17;;;1.40;;
1380;SDS011;684;48.342;10.096;2023-09-19T13:59:48;4.30;;;1.20;;
1380;SDS011;684;48.342;10.096;2023-09-19T14:02:16;3.90;;;1.27;;
1380;SDS011;684;48.342;10.096;2023-09-19T14:04:45;3.40;;;1.20;;
1380;SDS011;684;48.342;10.096;2023-09-19T14:07:11;3.73;;;1.20;;
1380;SDS011;684;48.342;10.096;2023-09-19T14:09:40;5.57;;;1.27;;
1380;SDS011;684;48.342;10.096;2023-09-19T14:12:07;5.50;;;1.63;;
1380;SDS011;684;48.342;10.096;2023-09-19T14:14:34;3.50;;;1.23;;
1380;SDS011;684;48.342;10.096;2023-09-19T14:17:02;3.50;;;1.10;;
1380;SDS011;684;48.342;10.096;2023-09-19T14:19:49;3.70;;;1.00;;
1380;SDS011;684;48.342;10.096;2023-09-19T14:22:16;4.57;;;1.30;;
1380;SDS011;684;48.342;10.096;2023-09-19T14:24:42;5.10;;;1.90;;
1380;SDS011;684;48.342;10.096;2023-09-19T14:27:09;4.00;;;1.27;;
1380;SDS011;684;48.342;10.096;2023-09-19T14:29:36;4.50;;;1.20;;
1380;SDS011;684;48.342;10.096;2023-09-19T14:32:04;3.93;;;1.23;;
1380;SDS011;684;48.342;10.096;2023-09-19T14:34:31;4.53;;;1.17;;
1380;SDS011;684;48.342;10.096;2023-09-19T14:36:59;4.00;;;1.50;;
1380;SDS011;684;48.342;10.096;2023-09-19T14:39:26;3.80;;;1.13;;
1380;SDS011;684;48.342;10.096;2023-09-19T14:41:53;4.47;;;1.50;;
1380;SDS011;684;48.342;10.096;2023-09-19T14:44:20;3.73;;;1.40;;
1380;SDS011;684;48.342;10.096;2023-09-19T14:46:47;4.83;;;1.00;;
1380;SDS011;684;48.342;10.096;2023-09-19T14:49:14;3.60;;;1.20;;
1380;SDS011;684;48.342;10.096;2023-09-19T14:51:40;3.50;;;1.10;;
1380;SDS011;684;48.342;10.096;2023-09-19T14:54:10;5.53;;;1.10;;
1380;SDS011;684;48.342;10.096;2023-09-19T14:56:37;3.40;;;0.90;;
1380;SDS011;684;48.342;10.096;2023-09-19T14:59:04;4.13;;;1.50;;
1380;SDS011;684;48.342;10.096;2023-09-19T15:01:32;3.80;;;1.50;;
1380;SDS011;684;48.342;10.096;2023-09-19T15:04:00;3.30;;;1.13;;
1380;SDS011;684;48.342;10.096;2023-09-19T15:06:26;3.77;;;1.13;;
1380;SDS011;684;48.342;10.096;2023-09-19T15:08:53;8.07;;;1.47;;
1380;SDS011;684;48.342;10.096;2023-09-19T15:11:21;4.50;;;1.53;;
1380;SDS011;684;48.342;10.096;2023-09-19T15:13:50;4.60;;;1.13;;
1380;SDS011;684;48.342;10.096;2023-09-19T15:16:18;4.87;;;1.50;;
1380;SDS011;684;48.342;10.096;2023-09-19T15:18:46;3.97;;;1.20;;
1380;SDS011;684;48.342;10.096;2023-09-19T15:21:13;3.73;;;1.20;;
1380;SDS011;684;48.342;10.096;2023-09-19T15:23:41;4.77;;;1.50;;
1380;SDS011;684;48.342;10.096;2023-09-19T15:26:09;3.70;;;1.20;;
1380;SDS011;684;48.342;10.096;2023-09-19T15:28:38;6.10;;;2.07;;
1380;SDS011;684;48.342;10.096;2023-09-19T15:31:06;3.83;;;1.10;;
1380;SDS011;684;48.342;10.096;2023-09-19T15:33:35;4.20;;;1.43;;
1380;SDS011;684;48.342;10.096;2023-09-19T15:36:02;4.80;;;1.00;;
1380;SDS011;684;48.342;10.096;2023-09-19T15:38:30;4.03;;;1.63;;
1380;SDS011;684;48.342;10.096;2023-09-19T15:40:57;5.23;;;1.80;;
1380;SDS011;684;48.342;10.096;2023-09-19T15:43:24;3.47;;;1.00;;
1380;SDS011;684;48.342;10.096;2023-09-19T15:45:53;5.93;;;1.83;;
1380;SDS011;684;48.342;10.096;2023-09-19T15:48:20;5.10;;;1.43;;